createdAt,value
2022-09-27T00:02:10.604Z,99491.19
2022-09-27T00:04:38.882Z,99492.69
2022-09-27T00:07:07.447Z,99483.34
2022-09-27T00:09:36.218Z,99472.03
2022-09-27T00:12:04.594Z,99480.56
2022-09-27T00:14:32.823Z,99483.28
2022-09-27T00:17:01.068Z,99487.13
2022-09-27T00:19:30.824Z,99474.31
2022-09-27T00:21:59.014Z,99472.38
2022-09-27T00:24:27.284Z,99471.28
2022-09-27T00:26:55.505Z,99475.53
2022-09-27T00:29:23.753Z,99474.75
2022-09-27T00:31:51.968Z,99482.06
2022-09-27T00:34:22.067Z,99486.00
2022-09-27T00:36:52.143Z,99482.09
2022-09-27T00:39:20.546Z,99476.22
2022-09-27T00:41:48.718Z,99478.16
2022-09-27T00:44:59.532Z,99482.06
2022-09-27T00:47:34.137Z,99476.22
2022-09-27T00:50:07.244Z,99469.66
2022-09-27T00:52:44.471Z,99468.91
2022-09-27T00:55:17.387Z,99469.69
2022-09-27T00:57:47.379Z,99465.06
2022-09-27T01:00:17.191Z,99464.75
2022-09-27T01:02:49.500Z,99470.56
2022-09-27T01:05:21.166Z,99466.75
2022-09-27T01:07:50.733Z,99465.63
2022-09-27T01:10:20.405Z,99455.84
2022-09-27T01:13:00.686Z,99453.50
2022-09-27T01:15:37.010Z,99447.38
2022-09-27T01:18:31.198Z,99448.13
2022-09-27T01:21:27.578Z,99442.81
2022-09-27T01:24:37.631Z,99438.97
2022-09-27T01:27:40.793Z,99442.41
2022-09-27T01:30:22.583Z,99433.53
2022-09-27T01:32:57.175Z,99438.91
2022-09-27T01:35:32.234Z,99439.97
2022-09-27T01:38:09.903Z,99441.09
2022-09-27T01:40:44.758Z,99438.31
2022-09-27T01:43:18.128Z,99428.69
2022-09-27T01:45:54.654Z,99432.16
2022-09-27T01:48:24.723Z,99433.78
2022-09-27T01:50:58.530Z,99428.44
2022-09-27T01:53:33.213Z,99422.63
2022-09-27T01:56:06.254Z,99422.28
2022-09-27T01:58:40.993Z,99425.84
2022-09-27T02:01:12.547Z,99422.44
2022-09-27T02:03:44.792Z,99418.53
2022-09-27T02:06:17.526Z,99414.66
2022-09-27T02:08:52.405Z,99404.22
2022-09-27T02:11:20.814Z,99397.28
2022-09-27T02:13:54.965Z,99391.53
2022-09-27T02:16:34.541Z,99392.34
2022-09-27T02:19:11.697Z,99389.25
2022-09-27T02:21:45.978Z,99402.81
2022-09-27T02:24:21.031Z,99403.22
2022-09-27T02:26:55.803Z,99411.75
2022-09-27T02:29:29.387Z,99424.19
2022-09-27T02:31:59.028Z,99423.03
2022-09-27T02:34:31.597Z,99426.94
2022-09-27T02:37:01.094Z,99430.44
2022-09-27T02:39:30.000Z,99413.38
2022-09-27T02:42:00.190Z,99410.59
2022-09-27T02:44:30.438Z,99407.47
2022-09-27T02:47:14.597Z,99426.88
2022-09-27T02:49:56.585Z,99426.88
2022-09-27T02:52:34.401Z,99418.00
2022-09-27T02:55:13.190Z,99423.81
2022-09-27T02:57:54.675Z,99428.81
2022-09-27T03:00:26.411Z,99420.69
2022-09-27T03:03:04.267Z,99411.75
2022-09-27T03:05:38.012Z,99408.22
2022-09-27T03:08:07.541Z,99421.38
2022-09-27T03:10:35.878Z,99426.78
2022-09-27T03:13:05.059Z,99428.34
2022-09-27T03:15:33.221Z,99438.44
2022-09-27T03:18:02.846Z,99431.44
2022-09-27T03:20:31.604Z,99426.38
2022-09-27T03:22:59.871Z,99428.34
2022-09-27T03:25:28.132Z,99430.28
2022-09-27T03:27:56.381Z,99417.88
2022-09-27T03:30:24.508Z,99406.25
2022-09-27T03:32:52.768Z,99404.31
2022-09-27T03:35:22.728Z,99398.09
2022-09-27T03:37:50.910Z,99386.50
2022-09-27T03:40:19.263Z,99385.69
2022-09-27T03:42:50.020Z,99374.03
2022-09-27T03:45:18.892Z,99373.25
2022-09-27T03:47:47.199Z,99358.50
2022-09-27T03:50:15.998Z,99360.41
2022-09-27T03:52:45.801Z,99366.09
2022-09-27T03:55:14.499Z,99359.03
2022-09-27T03:57:46.577Z,99366.97
2022-09-27T04:00:15.840Z,99365.78
2022-09-27T04:02:44.509Z,99366.13
2022-09-27T04:05:13.838Z,99368.41
2022-09-27T04:07:42.045Z,99380.38
2022-09-27T04:10:11.788Z,99382.00
2022-09-27T04:12:41.827Z,99383.53
2022-09-27T04:15:11.371Z,99367.72
2022-09-27T04:17:42.015Z,99365.03
2022-09-27T04:20:10.931Z,99366.31
2022-09-27T04:22:41.472Z,99359.78
2022-09-27T04:25:11.847Z,99358.59
2022-09-27T04:27:40.069Z,99358.22
2022-09-27T04:30:09.746Z,99356.31
2022-09-27T04:32:42.660Z,99363.69
2022-09-27T04:35:28.538Z,99364.50
2022-09-27T04:37:57.647Z,99371.91
2022-09-27T04:40:27.660Z,99371.63
2022-09-27T04:42:58.034Z,99382.50
2022-09-27T04:45:26.333Z,99379.41
2022-09-27T04:47:54.513Z,99379.78
2022-09-27T04:50:22.808Z,99380.97
2022-09-27T04:52:53.018Z,99380.25
2022-09-27T04:55:22.072Z,99385.63
2022-09-27T04:57:51.907Z,99385.28
2022-09-27T05:00:20.274Z,99372.91
2022-09-27T05:02:48.882Z,99369.00
2022-09-27T05:05:17.616Z,99372.91
2022-09-27T05:07:45.734Z,99372.53
2022-09-27T05:10:13.900Z,99371.38
2022-09-27T05:12:42.366Z,99376.84
2022-09-27T05:15:12.776Z,99377.72
2022-09-27T05:17:40.878Z,99370.69
2022-09-27T05:20:10.851Z,99371.91
2022-09-27T05:22:40.763Z,99371.94
2022-09-27T05:25:09.853Z,99373.91
2022-09-27T05:27:38.170Z,99368.13
2022-09-27T05:30:08.180Z,99380.56
2022-09-27T05:32:41.811Z,99395.31
2022-09-27T05:35:10.602Z,99390.69
2022-09-27T05:37:40.263Z,99387.94
2022-09-27T05:40:29.317Z,99393.03
2022-09-27T05:42:58.135Z,99388.38
2022-09-27T05:45:27.018Z,99384.50
2022-09-27T05:47:58.374Z,99374.38
2022-09-27T05:50:28.278Z,99366.56
2022-09-27T05:52:56.410Z,99370.06
2022-09-27T05:55:24.672Z,99352.50
2022-09-27T05:57:57.629Z,99347.50
2022-09-27T06:00:26.144Z,99349.50
2022-09-27T06:03:00.087Z,99356.13
2022-09-27T06:05:31.068Z,99361.88
2022-09-27T06:08:03.737Z,99367.31
2022-09-27T06:10:32.795Z,99372.69
2022-09-27T06:13:02.517Z,99369.16
2022-09-27T06:15:31.636Z,99355.72
2022-09-27T06:18:05.652Z,99357.03
2022-09-27T06:20:35.203Z,99361.31
2022-09-27T06:23:07.837Z,99360.00
2022-09-27T06:25:36.217Z,99369.00
2022-09-27T06:28:05.009Z,99363.50
2022-09-27T06:30:33.710Z,99365.81
2022-09-27T06:33:04.215Z,99365.03
2022-09-27T06:35:33.043Z,99363.91
2022-09-27T06:38:05.524Z,99365.88
2022-09-27T06:40:33.847Z,99363.13
2022-09-27T06:43:06.243Z,99365.56
2022-09-27T06:45:36.796Z,99364.47
2022-09-27T06:48:08.147Z,99358.41
2022-09-27T06:50:38.107Z,99352.22
2022-09-27T06:53:08.430Z,99347.63
2022-09-27T06:55:36.691Z,99348.41
2022-09-27T06:58:23.103Z,99351.59
2022-09-27T07:00:53.485Z,99359.81
2022-09-27T07:03:28.426Z,99343.34
2022-09-27T07:06:01.220Z,99349.31
2022-09-27T07:08:30.191Z,99338.81
2022-09-27T07:11:03.698Z,99341.19
2022-09-27T07:13:34.748Z,99345.25
2022-09-27T07:16:03.326Z,99336.63
2022-09-27T07:18:33.076Z,99320.50
2022-09-27T07:21:01.808Z,99335.50
2022-09-27T07:23:31.235Z,99338.75
2022-09-27T07:26:04.398Z,99335.75
2022-09-27T07:28:32.580Z,99337.94
2022-09-27T07:31:00.743Z,99339.75
2022-09-27T07:33:28.928Z,99331.78
2022-09-27T07:35:58.707Z,99333.78
2022-09-27T07:38:26.888Z,99329.75
2022-09-27T07:40:55.030Z,99322.16
2022-09-27T07:43:23.771Z,99330.81
2022-09-27T07:45:52.065Z,99336.28
2022-09-27T07:48:20.272Z,99332.31
2022-09-27T07:50:48.388Z,99346.75
2022-09-27T07:53:18.477Z,99344.56
2022-09-27T07:55:52.061Z,99330.78
2022-09-27T07:58:20.767Z,99326.94
2022-09-27T08:00:49.000Z,99327.78
2022-09-27T08:03:18.683Z,99328.59
2022-09-27T08:05:48.363Z,99326.47
2022-09-27T08:08:19.004Z,99319.38
2022-09-27T08:10:47.276Z,99320.84
2022-09-27T08:13:20.401Z,99315.03
2022-09-27T08:15:52.615Z,99322.00
2022-09-27T08:18:22.147Z,99320.72
2022-09-27T08:20:50.353Z,99307.94
2022-09-27T08:23:20.022Z,99305.16
2022-09-27T08:25:54.273Z,99298.94
2022-09-27T08:28:22.831Z,99288.88
2022-09-27T08:30:51.955Z,99278.84
2022-09-27T08:33:20.361Z,99279.53
2022-09-27T08:35:48.542Z,99287.94
2022-09-27T08:38:16.642Z,99282.03
2022-09-27T08:40:54.800Z,99283.50
2022-09-27T08:43:33.265Z,99291.69
2022-09-27T08:46:12.697Z,99281.59
2022-09-27T08:48:41.403Z,99277.88
2022-09-27T08:51:15.215Z,99291.44
2022-09-27T08:53:49.602Z,99289.72
2022-09-27T08:56:21.451Z,99278.84
2022-09-27T08:58:54.089Z,99266.97
2022-09-27T09:01:27.844Z,99275.84
2022-09-27T09:03:59.420Z,99278.59
2022-09-27T09:06:30.528Z,99272.69
2022-09-27T09:09:12.102Z,99266.94
2022-09-27T09:12:13.480Z,99256.84
2022-09-27T09:15:16.083Z,99262.19
2022-09-27T09:17:58.628Z,99277.25
2022-09-27T09:20:42.900Z,99266.09
2022-09-27T09:23:34.716Z,99266.19
2022-09-27T09:26:09.627Z,99262.31
2022-09-27T09:28:54.645Z,99271.38
2022-09-27T09:31:32.041Z,99266.97
2022-09-27T09:34:06.599Z,99259.50
2022-09-27T09:36:40.012Z,99268.06
2022-09-27T09:39:16.908Z,99276.88
2022-09-27T09:41:55.380Z,99269.16
2022-09-27T09:44:29.334Z,99267.88
2022-09-27T09:47:00.797Z,99262.84
2022-09-27T09:49:33.063Z,99271.31
2022-09-27T09:52:09.134Z,99273.28
2022-09-27T09:54:41.737Z,99275.94
2022-09-27T09:57:15.459Z,99275.41
2022-09-27T09:59:52.922Z,99266.00
2022-09-27T10:02:29.544Z,99261.44
2022-09-27T10:04:57.969Z,99266.53
2022-09-27T10:07:27.457Z,99266.59
2022-09-27T10:09:58.411Z,99254.44
2022-09-27T10:12:26.904Z,99243.88
2022-09-27T10:15:01.076Z,99237.25
2022-09-27T10:17:37.125Z,99232.63
2022-09-27T10:20:07.428Z,99225.53
2022-09-27T10:22:39.151Z,99236.59
2022-09-27T10:25:09.503Z,99240.94
2022-09-27T10:27:42.182Z,99237.16
2022-09-27T10:30:27.951Z,99234.06
2022-09-27T10:33:00.420Z,99235.22
2022-09-27T10:35:37.753Z,99232.69
2022-09-27T10:38:22.750Z,99228.16
2022-09-27T10:41:45.925Z,99229.47
2022-09-27T10:44:25.399Z,99221.69
2022-09-27T10:46:56.979Z,99218.69
2022-09-27T10:49:29.254Z,99216.34
2022-09-27T10:51:59.902Z,99209.44
2022-09-27T10:54:30.200Z,99201.09
2022-09-27T10:57:01.594Z,99211.91
2022-09-27T10:59:32.513Z,99202.97
2022-09-27T11:02:02.442Z,99203.63
2022-09-27T11:04:33.642Z,99191.50
2022-09-27T11:07:16.492Z,99185.53
2022-09-27T11:09:52.873Z,99185.63
2022-09-27T11:12:22.934Z,99193.59
2022-09-27T11:14:56.766Z,99199.47
2022-09-27T11:17:40.903Z,99190.59
2022-09-27T11:20:24.147Z,99188.28
2022-09-27T11:23:18.156Z,99185.06
2022-09-27T11:26:00.278Z,99184.47
2022-09-27T11:28:37.575Z,99179.50
2022-09-27T11:31:19.442Z,99179.41
2022-09-27T11:34:09.250Z,99183.56
2022-09-27T11:36:54.689Z,99174.31
2022-09-27T11:39:34.646Z,99156.88
2022-09-27T11:42:23.829Z,99164.91
2022-09-27T11:45:45.350Z,99151.22
2022-09-27T11:48:19.649Z,99147.44
2022-09-27T11:51:02.495Z,99148.13
2022-09-27T11:54:00.372Z,99142.84
2022-09-27T11:56:39.718Z,99136.69
2022-09-27T11:59:39.500Z,99130.34
2022-09-27T12:02:24.548Z,99129.03
2022-09-27T12:05:03.036Z,99124.00
2022-09-27T12:07:41.838Z,99122.00
2022-09-27T12:10:14.667Z,99128.84
2022-09-27T12:12:47.844Z,99123.75
2022-09-27T12:15:18.587Z,99115.13
2022-09-27T12:17:50.373Z,99109.63
2022-09-27T12:20:22.749Z,99111.34
2022-09-27T12:22:59.467Z,99115.63
2022-09-27T12:25:32.983Z,99118.34
2022-09-27T12:28:10.323Z,99108.66
2022-09-27T12:30:42.999Z,99118.28
2022-09-27T12:33:19.917Z,99116.44
2022-09-27T12:35:53.709Z,99124.03
2022-09-27T12:38:29.304Z,99118.78
2022-09-27T12:41:00.872Z,99121.44
2022-09-27T12:43:32.028Z,99123.53
2022-09-27T12:46:13.231Z,99112.91
2022-09-27T12:48:49.067Z,99118.59
2022-09-27T12:51:19.946Z,99116.56
2022-09-27T12:54:06.074Z,99106.44
2022-09-27T12:56:48.776Z,99103.97
2022-09-27T12:59:46.041Z,99113.53
2022-09-27T13:03:16.458Z,99117.72
2022-09-27T13:06:14.294Z,99116.19
2022-09-27T13:09:17.532Z,99120.06
2022-09-27T13:11:54.114Z,99124.31
2022-09-27T13:14:26.586Z,99118.66
2022-09-27T13:16:55.092Z,99115.50
2022-09-27T13:19:43.145Z,99109.44
2022-09-27T13:22:37.939Z,99117.19
2022-09-27T13:25:55.522Z,99119.84
2022-09-27T13:28:36.519Z,99114.34
2022-09-27T13:31:06.777Z,99102.72
2022-09-27T13:33:47.216Z,99119.91
2022-09-27T13:36:33.728Z,99126.00
2022-09-27T13:39:20.021Z,99124.50
2022-09-27T13:42:18.217Z,99126.13
2022-09-27T13:44:56.751Z,99129.78
2022-09-27T13:47:33.451Z,99134.03
2022-09-27T13:50:15.069Z,99137.19
2022-09-27T13:52:46.436Z,99127.69
2022-09-27T13:55:41.451Z,99124.22
2022-09-27T13:58:34.248Z,99121.50
2022-09-27T14:01:07.608Z,99121.53
2022-09-27T14:03:40.673Z,99117.28
2022-09-27T14:06:14.943Z,99116.22
2022-09-27T14:08:47.352Z,99124.00
2022-09-27T14:11:20.164Z,99113.50
2022-09-27T14:13:50.675Z,99112.34
2022-09-27T14:16:22.141Z,99115.59
2022-09-27T14:18:53.340Z,99106.19
2022-09-27T14:21:29.866Z,99105.31
2022-09-27T14:24:21.318Z,99104.22
2022-09-27T14:26:49.965Z,99113.16
2022-09-27T14:29:21.995Z,99109.22
2022-09-27T14:32:05.103Z,99099.31
2022-09-27T14:34:33.333Z,99111.50
2022-09-27T14:37:18.825Z,99102.47
2022-09-27T14:39:48.032Z,99103.16
2022-09-27T14:42:22.363Z,99099.75
2022-09-27T14:44:52.993Z,99104.16
2022-09-27T14:47:22.954Z,99098.59
2022-09-27T14:49:52.696Z,99100.06
2022-09-27T14:52:24.411Z,99101.00
2022-09-27T14:55:00.919Z,99098.38
2022-09-27T14:57:32.857Z,99094.56
2022-09-27T15:00:05.010Z,99101.63
2022-09-27T15:02:34.072Z,99110.88
2022-09-27T15:05:02.366Z,99102.34
2022-09-27T15:07:32.615Z,99099.25
2022-09-27T15:10:00.828Z,99100.81
2022-09-27T15:12:30.743Z,99114.41
2022-09-27T15:14:59.611Z,99124.16
2022-09-27T15:17:29.305Z,99112.53
2022-09-27T15:20:00.177Z,99072.06
2022-09-27T15:22:42.676Z,99077.53
2022-09-27T15:25:23.641Z,99101.25
2022-09-27T15:27:54.568Z,99133.13
2022-09-27T15:30:29.857Z,99131.56
2022-09-27T15:33:00.210Z,99136.66
2022-09-27T15:35:33.390Z,99130.84
2022-09-27T15:38:25.222Z,99120.88
2022-09-27T15:41:04.162Z,99115.06
2022-09-27T15:43:35.987Z,99119.28
2022-09-27T15:46:06.163Z,99123.97
2022-09-27T15:48:37.783Z,99115.00
2022-09-27T15:51:42.353Z,99114.22
2022-09-27T15:54:10.444Z,99127.81
2022-09-27T15:56:38.953Z,99125.06
2022-09-27T15:59:08.069Z,99136.25
2022-09-27T16:01:36.202Z,99139.75
2022-09-27T16:04:10.064Z,99142.88
2022-09-27T16:06:39.486Z,99126.59
2022-09-27T16:09:10.665Z,99124.28
2022-09-27T16:11:38.818Z,99126.59
2022-09-27T16:14:06.888Z,99108.38
2022-09-27T16:16:35.647Z,99106.38
2022-09-27T16:19:05.289Z,99107.22
2022-09-27T16:21:33.419Z,99105.69
2022-09-27T16:24:06.207Z,99110.41
2022-09-27T16:26:35.465Z,99101.09
2022-09-27T16:29:03.608Z,99111.56
2022-09-27T16:31:31.937Z,99098.03
2022-09-27T16:34:00.509Z,99103.09
2022-09-27T16:36:30.190Z,99099.94
2022-09-27T16:38:58.303Z,99113.13
2022-09-27T16:41:26.523Z,99112.34
2022-09-27T16:43:54.639Z,99102.25
2022-09-27T16:46:23.350Z,99101.47
2022-09-27T16:48:51.659Z,99115.84
2022-09-27T16:51:39.864Z,99113.94
2022-09-27T16:54:09.787Z,99110.84
2022-09-27T16:56:38.309Z,99120.16
2022-09-27T16:59:07.118Z,99112.00
2022-09-27T17:01:35.656Z,99101.53
2022-09-27T17:04:04.161Z,99103.84
2022-09-27T17:06:33.202Z,99101.91
2022-09-27T17:09:03.849Z,99111.22
2022-09-27T17:11:34.735Z,99113.94
2022-09-27T17:14:03.659Z,99110.78
2022-09-27T17:16:31.903Z,99110.34
2022-09-27T17:19:00.030Z,99099.03
2022-09-27T17:21:28.139Z,99107.16
2022-09-27T17:23:56.711Z,99114.06
2022-09-27T17:26:26.961Z,99100.81
2022-09-27T17:28:57.378Z,99105.06
2022-09-27T17:31:26.510Z,99096.84
2022-09-27T17:33:57.826Z,99091.34
2022-09-27T17:36:28.238Z,99092.91
2022-09-27T17:38:56.450Z,99087.09
2022-09-27T17:41:26.148Z,99092.56
2022-09-27T17:43:57.987Z,99094.56
2022-09-27T17:46:27.995Z,99096.19
2022-09-27T17:49:13.851Z,99087.72
2022-09-27T17:51:42.971Z,99091.66
2022-09-27T17:54:12.531Z,99087.03
2022-09-27T17:56:42.516Z,99100.63
2022-09-27T17:59:13.458Z,99094.06
2022-09-27T18:01:41.630Z,99087.13
2022-09-27T18:04:11.713Z,99081.72
2022-09-27T18:06:41.993Z,99084.81
2022-09-27T18:09:12.055Z,99107.31
2022-09-27T18:11:41.137Z,99112.66
2022-09-27T18:14:10.759Z,99111.31
2022-09-27T18:16:44.002Z,99108.41
2022-09-27T18:19:14.308Z,99108.34
2022-09-27T18:21:42.441Z,99117.88
2022-09-27T18:24:11.859Z,99123.66
2022-09-27T18:26:40.762Z,99124.66
2022-09-27T18:29:12.131Z,99130.03
2022-09-27T18:31:47.377Z,99129.50
2022-09-27T18:34:16.932Z,99121.34
2022-09-27T18:36:45.569Z,99140.31
2022-09-27T18:39:17.450Z,99151.47
2022-09-27T18:41:46.662Z,99165.81
2022-09-27T18:44:15.706Z,99165.75
2022-09-27T18:46:45.316Z,99162.31
2022-09-27T18:49:15.458Z,99165.84
2022-09-27T18:51:47.101Z,99172.81
2022-09-27T18:54:17.370Z,99177.97
2022-09-27T18:56:45.662Z,99176.03
2022-09-27T18:59:14.483Z,99187.81
2022-09-27T19:01:46.374Z,99179.66
2022-09-27T19:04:19.243Z,99186.63
2022-09-27T19:06:49.771Z,99200.50
2022-09-27T19:09:18.019Z,99201.22
2022-09-27T19:11:46.457Z,99197.69
2022-09-27T19:14:17.679Z,99210.56
2022-09-27T19:16:48.296Z,99213.28
2022-09-27T19:19:17.237Z,99213.81
2022-09-27T19:21:45.905Z,99203.78
2022-09-27T19:24:15.891Z,99212.00
2022-09-27T19:26:44.370Z,99232.25
2022-09-27T19:29:13.024Z,99219.81
2022-09-27T19:31:42.569Z,99240.03
2022-09-27T19:34:12.474Z,99225.41
2022-09-27T19:36:40.652Z,99221.25
2022-09-27T19:39:09.562Z,99215.09
2022-09-27T19:41:37.951Z,99224.88
2022-09-27T19:44:06.804Z,99245.47
2022-09-27T19:46:35.027Z,99229.66
2022-09-27T19:49:03.153Z,99224.72
2022-09-27T19:51:33.455Z,99196.34
2022-09-27T19:54:01.547Z,99190.88
2022-09-27T19:56:29.655Z,99188.06
2022-09-27T19:58:57.767Z,99198.84
2022-09-27T20:01:27.001Z,99194.25
2022-09-27T20:03:56.910Z,99204.38
2022-09-27T20:06:25.013Z,99194.25
2022-09-27T20:08:55.911Z,99195.03
2022-09-27T20:11:26.353Z,99198.88
2022-09-27T20:13:54.661Z,99201.19
2022-09-27T20:16:24.543Z,99192.66
2022-09-27T20:18:54.158Z,99202.97
2022-09-27T20:21:25.279Z,99212.56
2022-09-27T20:23:56.588Z,99214.09
2022-09-27T20:26:26.671Z,99229.94
2022-09-27T20:28:57.108Z,99243.16
2022-09-27T20:31:27.368Z,99251.63
2022-09-27T20:33:56.158Z,99270.53
2022-09-27T20:36:25.784Z,99265.13
2022-09-27T20:39:01.983Z,99260.09
2022-09-27T20:41:32.629Z,99267.50
2022-09-27T20:44:03.661Z,99269.13
2022-09-27T20:46:32.092Z,99277.63
2022-09-27T20:49:02.898Z,99277.66
2022-09-27T20:51:33.390Z,99276.16
2022-09-27T20:54:03.277Z,99273.81
2022-09-27T20:56:33.321Z,99279.22
2022-09-27T20:59:03.717Z,99277.31
2022-09-27T21:01:32.418Z,99280.78
2022-09-27T21:04:02.493Z,99290.06
2022-09-27T21:06:31.633Z,99281.97
2022-09-27T21:09:00.766Z,99283.13
2022-09-27T21:11:30.470Z,99295.97
2022-09-27T21:13:58.698Z,99294.78
2022-09-27T21:16:28.537Z,99306.75
2022-09-27T21:18:58.904Z,99297.13
2022-09-27T21:21:27.646Z,99291.59
2022-09-27T21:23:58.226Z,99283.41
2022-09-27T21:26:28.187Z,99277.50
2022-09-27T21:28:59.353Z,99247.75
2022-09-27T21:31:29.983Z,99226.63
2022-09-27T21:34:00.425Z,99235.97
2022-09-27T21:36:30.972Z,99228.28
2022-09-27T21:38:59.593Z,99226.00
2022-09-27T21:41:28.906Z,99235.22
2022-09-27T21:43:58.721Z,99249.84
2022-09-27T21:46:29.337Z,99260.28
2022-09-27T21:48:59.212Z,99253.28
2022-09-27T21:51:29.337Z,99255.56
2022-09-27T21:53:59.122Z,99243.16
2022-09-27T21:56:28.503Z,99251.06
2022-09-27T21:58:56.663Z,99252.97
2022-09-27T22:01:29.565Z,99239.94
2022-09-27T22:03:58.695Z,99241.16
2022-09-27T22:06:28.974Z,99235.03
2022-09-27T22:08:59.281Z,99228.44
2022-09-27T22:11:30.443Z,99207.84
2022-09-27T22:13:58.558Z,99209.22
2022-09-27T22:16:30.346Z,99237.03
2022-09-27T22:18:59.315Z,99238.47
2022-09-27T22:21:29.584Z,99252.03
2022-09-27T22:23:58.894Z,99268.97
2022-09-27T22:26:29.462Z,99254.41
2022-09-27T22:28:58.640Z,99252.44
2022-09-27T22:31:29.055Z,99255.50
2022-09-27T22:33:59.759Z,99254.00
2022-09-27T22:36:29.056Z,99236.16
2022-09-27T22:38:57.866Z,99225.41
2022-09-27T22:41:26.646Z,99213.34
2022-09-27T22:43:54.760Z,99210.56
2022-09-27T22:46:23.403Z,99208.34
2022-09-27T22:48:53.121Z,99191.28
2022-09-27T22:51:21.230Z,99200.06
2022-09-27T22:53:49.588Z,99193.06
2022-09-27T22:56:19.810Z,99195.38
2022-09-27T22:58:49.131Z,99205.06
2022-09-27T23:01:20.327Z,99204.34
2022-09-27T23:03:49.627Z,99201.03
2022-09-27T23:06:20.894Z,99222.84
2022-09-27T23:08:49.668Z,99228.94
2022-09-27T23:11:19.347Z,99232.38
2022-09-27T23:13:49.051Z,99215.78
2022-09-27T23:16:20.367Z,99207.34
2022-09-27T23:18:48.836Z,99211.59
2022-09-27T23:21:18.665Z,99211.31
2022-09-27T23:23:47.539Z,99208.69
2022-09-27T23:26:17.440Z,99204.09
2022-09-27T23:28:45.733Z,99213.81
2022-09-27T23:31:15.549Z,99224.56
2022-09-27T23:33:45.708Z,99227.72
2022-09-27T23:36:15.324Z,99242.44
2022-09-27T23:38:45.953Z,99247.59
2022-09-27T23:41:14.252Z,99241.91
2022-09-27T23:43:42.870Z,99254.75
2022-09-27T23:46:11.660Z,99264.47
2022-09-27T23:48:40.152Z,99255.88
2022-09-27T23:51:10.524Z,99259.25
2022-09-27T23:53:39.373Z,99263.41
2022-09-27T23:56:11.957Z,99272.56
2022-09-27T23:58:41.791Z,99277.81
